Huvudsida
METAR-TAF:

METAR-TAF

Flygplatser :

Las Américas internationella flygplats

Punta Caucedo, Dominikanska republiken

latitud: 18-26N, longitud: 069-40W, höjd: 18 m

Aktuellt väderrapport

Denna rapport gjordes för 38 minuter sedan, klockan 15:00 UTC
Vind 7 kt från nord/nordost
Temperatur 29°C
Fuktighet 74%
Tryck 1014 hPa
Sikt 10 km eller mer
Spridda moln på en höjd av 2000 ft

METAR: MDSD 201500Z 03007KT 9999 SCT020 29/24 Q1014 NOSIG

Tid: 11:38 (15:38 UTC)

Väderprognos

Denna rapport gjordes för 5 timmar och 38 minuter sedan, klockan 10:00 UTC
Prognos gäller från 20 kl. 12 UTC till 21 kl. 12 UTC
Vind 4 kt från ost/nordost
Sikt 10 km eller mer
Få moln på en höjd av 1800 ft
Sannolikhet 30%
från 20 kl. 17 UTC till 20 kl. 23 UTC
Sikt: 8000 m
Få moln på en höjd av 1600 ft, Cumulonimbus.
Spridda moln på en höjd av 1800 ft
regnskurar

TAF: MDSD 201000Z 2012/2112 06004KT 9999 FEW018 PROB30 2017/2023 8000 SHRA FEW016CB SCT018

Aktuella väderrapporter och prognoser från 4000 flygplatser (METAR- och TAF-rapporter).

De tillgängliga stationerna syns som gula och röda prickar på kartan.

För musen över prickarna för att se namnen på stationerna.

Klicka sedan för att få väderrapporter och prognoser.

För att ändra kartan: Klicka på de gröna knapparna med ett svart kors på för att zooma in; den gröna knappen med ett streck på för att zooma ut; eller på de gröna pilarna för angränsande kartor.


METAR-TAF: